Portland, New York
Current Conditions -  °F | °C
As of 9:53 PM on Saturday 22 Nov 2014 (Local Time) from KDKK Reporting Station
Light Rain Light Rain  
Wind Chill:   Ceiling: 3500
Heat Index:   Visibility: 10mi
Dew Point:   Wind: 18mph
Humidity: 74%   Direction: 200°SSW
Pressure: 30"   Gusts: 24mph
Location:  42.38°N, 79.47°W
Report Text: KDKK 230253Z AUTO 20016G21KT 10SM -RA OVC035 07/03 A3000 RMK AO2 RAE0157B52 SLP164 P0000 60005 T00720028 56004
Loading
Personal Weather Stations






























Interactive Weather Map New forecast layout! Learn more

10-Day Weather Forecast

Advertisements
Track Severe Weather on mobile